Time;durP1;ratioP1;P1;durP2;ratioP2;P2;SDS_P1;SDS_P2;PMS_P1;PMS_P2;Temp;Humidity;BMP_temperature;BMP_pressure;BME280_temperature;BME280_humidity;BME280_pressure;Samples;Min_cycle;Max_cycle;Signal;HPM_P1;HPM_P2
2024/04/09 00:00:46;;;;;;;0.10;0.10;;;21.90;84.10;;;22.36;59.94;98785.97;5302565;26;20289;-26
2024/04/09 00:03:12;;;;;;;0.00;0.00;;;21.90;84.20;;;22.37;61.15;98782.22;5332411;26;20232;-25
2024/04/09 00:05:41;;;;;;;0.10;0.10;;;21.90;85.50;;;22.36;61.77;98785.16;5328571;26;20277;-27
2024/04/09 00:08:14;;;;;;;0.10;0.10;;;21.90;85.80;;;22.33;61.31;98784.63;5354013;26;20304;-24
2024/04/09 00:10:40;;;;;;;0.10;0.10;;;21.80;85.40;;;22.30;61.27;98792.34;5368952;26;20305;-24
2024/04/09 00:13:06;;;;;;;0.00;0.00;;;21.80;85.60;;;22.28;61.04;98781.94;5341725;26;20259;-24
2024/04/09 00:15:36;;;;;;;0.10;0.10;;;21.80;85.30;;;22.25;60.88;98784.38;5345759;26;20272;-26
2024/04/09 00:18:11;;;;;;;0.00;0.00;;;21.80;85.30;;;22.23;61.47;98789.97;5333922;26;20618;-24
2024/04/09 00:20:39;;;;;;;0.10;0.10;;;21.70;85.70;;;22.20;62.46;98801.13;5331772;26;20367;-24
2024/04/09 00:23:05;;;;;;;0.10;0.10;;;21.70;86.70;;;22.20;62.33;98792.34;5350837;26;20247;-25
2024/04/09 00:25:31;;;;;;;0.10;0.10;;;21.70;86.90;;;22.19;62.42;98809.41;5331585;26;20282;-25
2024/04/09 00:27:59;;;;;;;0.10;0.10;;;21.70;86.90;;;22.16;61.76;98793.97;5352427;26;20384;-27
2024/04/09 00:30:27;;;;;;;0.00;0.00;;;21.70;86.60;;;22.15;62.55;98801.16;5363518;26;20262;-28
2024/04/09 00:32:54;;;;;;;0.10;0.10;;;21.60;87.40;;;22.13;62.98;98802.47;5338324;26;20262;-25
2024/04/09 00:35:26;;;;;;;0.10;0.10;;;21.60;87.50;;;22.11;62.30;98793.97;5339226;26;20247;-25
2024/04/09 00:37:56;;;;;;;0.00;0.00;;;21.60;87.20;;;22.09;62.62;98796.09;5337213;26;20271;-25
2024/04/09 00:40:24;;;;;;;0.00;0.00;;;21.60;87.30;;;22.05;62.07;98804.56;5354653;26;20271;-25
2024/04/09 00:42:52;;;;;;;0.10;0.10;;;21.60;87.30;;;22.04;62.58;98804.84;5315278;26;20263;-25
2024/04/09 00:45:22;;;;;;;0.00;0.00;;;21.50;87.40;;;22.00;62.60;98807.22;5337742;26;20412;-24
2024/04/09 00:47:53;;;;;;;0.10;0.10;;;21.50;87.40;;;21.99;62.40;98821.63;5366894;26;20268;-26
2024/04/09 00:50:20;;;;;;;0.00;0.00;;;21.50;87.60;;;21.98;62.21;98829.88;5351133;26;20353;-24
2024/04/09 00:52:50;;;;;;;0.00;0.00;;;21.50;87.50;;;21.96;62.18;98832.00;5345158;26;20690;-25
2024/04/09 00:55:16;;;;;;;0.10;0.10;;;21.40;87.40;;;21.93;62.36;98843.97;5366178;26;20291;-26
2024/04/09 00:57:48;;;;;;;0.00;0.00;;;21.40;87.40;;;21.91;62.09;98847.97;5380011;26;20264;-26
2024/04/09 01:00:16;;;;;;;0.00;0.00;;;21.40;87.40;;;21.89;62.57;98844.78;5343410;26;20274;-27
2024/04/09 01:02:42;;;;;;;0.00;0.00;;;21.40;87.50;;;21.87;62.97;98860.19;5342503;26;20368;-26
2024/04/09 01:05:10;;;;;;;0.00;0.00;;;21.40;87.70;;;21.85;62.79;98862.34;5348433;26;20330;-26
2024/04/09 01:07:37;;;;;;;0.10;0.10;;;21.30;87.70;;;21.83;62.54;98869.78;5351818;26;20642;-26
2024/04/09 01:10:05;;;;;;;0.10;0.10;;;21.30;87.70;;;21.80;62.25;98871.91;5339696;26;20269;-25
2024/04/09 01:12:31;;;;;;;0.10;0.10;;;21.30;87.80;;;21.79;62.73;98870.31;5337459;26;20329;-25
2024/04/09 01:14:57;;;;;;;0.10;0.10;;;21.30;88.00;;;21.79;62.60;98872.97;5344899;26;21313;-24
2024/04/09 01:17:25;;;;;;;0.10;0.10;;;21.30;88.30;;;21.77;62.54;98877.75;5342973;26;20264;-25
2024/04/09 01:19:51;;;;;;;0.10;0.10;;;21.20;88.10;;;21.75;62.60;98879.09;5335063;26;20264;-25
2024/04/09 01:22:17;;;;;;;0.10;0.10;;;21.20;88.20;;;21.73;63.06;98887.31;5333998;26;20275;-26
2024/04/09 01:24:44;;;;;;;0.10;0.10;;;21.20;88.20;;;21.70;62.79;98881.72;5324178;26;20266;-24
2024/04/09 01:27:14;;;;;;;0.10;0.10;;;21.20;88.20;;;21.70;62.84;98892.38;5377748;26;20305;-26
2024/04/09 01:29:44;;;;;;;0.10;0.10;;;21.20;88.00;;;21.68;62.78;98891.84;5340723;26;20632;-26
2024/04/09 01:32:10;;;;;;;0.10;0.10;;;21.10;88.20;;;21.65;62.41;98893.16;5339550;26;20270;-27
2024/04/09 01:34:36;;;;;;;0.10;0.10;;;21.10;88.30;;;21.64;63.04;98888.91;5332648;26;20274;-25
2024/04/09 01:37:03;;;;;;;0.00;0.00;;;21.10;88.50;;;21.64;63.49;98899.53;5350267;26;20630;-24
2024/04/09 01:39:30;;;;;;;0.00;0.00;;;21.10;88.80;;;21.61;63.12;98889.44;5360299;26;20243;-25
2024/04/09 01:41:56;;;;;;;0.10;0.10;;;21.00;88.60;;;21.60;63.09;98895.00;5345787;26;20262;-25
2024/04/09 01:44:22;;;;;;;0.10;0.10;;;21.00;88.60;;;21.58;63.16;98907.78;5348975;26;20268;-24
2024/04/09 01:46:48;;;;;;;0.00;0.00;;;21.00;88.70;;;21.57;63.21;98909.63;5341993;26;20274;-29
2024/04/09 01:49:23;;;;;;;0.00;0.00;;;21.00;89.00;;;21.56;62.92;98929.31;5360618;26;21019;-24
2024/04/09 01:51:49;;;;;;;0.00;0.00;;;21.00;88.90;;;21.54;62.78;98931.44;5376070;26;20362;-28
2024/04/09 01:54:15;;;;;;;0.10;0.10;;;20.90;88.90;;;21.50;62.43;98923.19;5374313;26;20712;-25
2024/04/09 01:56:41;;;;;;;0.10;0.10;;;20.90;88.80;;;21.48;63.16;98917.31;5373562;26;20258;-26
2024/04/09 01:59:07;;;;;;;0.00;0.00;;;20.90;88.90;;;21.46;63.06;98911.44;5360635;26;20613;-24
2024/04/09 02:01:33;;;;;;;0.00;0.00;;;20.90;88.90;;;21.44;63.33;98915.44;5346464;26;20318;-26
2024/04/09 02:04:01;;;;;;;0.00;0.00;;;20.90;89.10;;;21.41;63.28;98932.72;5340238;26;21020;-26
2024/04/09 02:06:28;;;;;;;0.00;0.00;;;20.80;89.00;;;21.39;62.88;98942.00;5350301;26;20742;-25
2024/04/09 02:08:54;;;;;;;0.00;0.00;;;20.80;89.10;;;21.38;63.64;98943.84;5331689;26;20264;-25
2024/04/09 02:11:22;;;;;;;0.10;0.10;;;20.80;89.20;;;21.36;63.03;98937.22;5352263;26;20307;-25
2024/04/09 02:13:48;;;;;;;0.10;0.10;;;20.80;89.50;;;21.33;63.21;98930.53;5312469;26;20299;-24
2024/04/09 02:16:16;;;;;;;0.00;0.00;;;20.80;89.40;;;21.31;63.34;98932.66;5359888;26;20776;-24
2024/04/09 02:18:42;;;;;;;0.00;0.00;;;20.80;89.50;;;21.30;63.38;98949.69;5340613;26;20394;-26
2024/04/09 02:21:09;;;;;;;0.10;0.10;;;20.70;89.90;;;21.27;63.23;98964.28;5338293;26;20299;-24
2024/04/09 02:23:39;;;;;;;0.00;0.00;;;20.70;89.60;;;21.25;63.31;98971.69;5335349;26;20240;-25
2024/04/09 02:26:05;;;;;;;0.00;0.00;;;20.70;89.80;;;21.23;64.02;98987.09;5361205;26;20258;-25
2024/04/09 02:28:32;;;;;;;0.10;0.10;;;20.70;90.00;;;21.22;63.66;98992.69;5351550;26;20262;-24
2024/04/09 02:30:59;;;;;;;0.00;0.00;;;20.60;90.00;;;21.18;64.11;98992.38;5334226;26;20326;-23
2024/04/09 02:33:25;;;;;;;0.10;0.10;;;20.60;90.00;;;21.18;63.89;99000.38;5324786;26;20266;-24
2024/04/09 02:36:04;;;;;;;0.10;0.10;;;20.60;90.20;;;21.17;64.21;98995.31;5322098;26;20307;-24
2024/04/09 02:38:36;;;;;;;0.00;0.00;;;20.60;90.10;;;21.13;63.92;98987.03;5351510;26;20263;-25
2024/04/09 02:41:03;;;;;;;0.00;0.00;;;20.60;90.10;;;21.11;63.68;98999.78;5342106;26;20266;-26
2024/04/09 02:43:29;;;;;;;0.00;0.00;;;20.50;90.10;;;21.07;63.60;99001.38;5353213;26;20317;-25
2024/04/09 02:45:55;;;;;;;0.00;0.00;;;20.50;90.20;;;21.06;64.19;99009.56;5370151;26;20618;-25
2024/04/09 02:48:21;;;;;;;0.00;0.00;;;20.50;90.30;;;21.02;63.85;99011.97;5355298;26;20728;-25
2024/04/09 02:50:58;;;;;;;0.00;0.00;;;20.50;90.20;;;20.99;63.78;99010.59;5347815;26;20284;-24
2024/04/09 02:53:25;;;;;;;0.00;0.00;;;20.40;90.30;;;20.99;64.39;99015.91;5349507;26;20264;-27
2024/04/09 02:56:07;;;;;;;0.00;0.00;;;20.40;90.30;;;20.97;63.92;99009.25;5388516;26;20315;-26
2024/04/09 02:58:36;;;;;;;0.03;0.03;;;20.40;90.40;;;20.95;64.74;98998.88;5355214;26;20267;-25
2024/04/09 03:01:08;;;;;;;0.00;0.00;;;20.40;90.50;;;20.93;64.33;98994.84;5327106;26;20266;-24
2024/04/09 03:03:36;;;;;;;0.00;0.00;;;20.30;90.50;;;20.91;64.31;99002.28;5340950;26;20363;-25
2024/04/09 03:06:12;;;;;;;0.00;0.00;;;20.30;90.50;;;20.90;65.08;99017.44;5350795;26;20280;-24
2024/04/09 03:08:39;;;;;;;0.10;0.10;;;20.30;90.70;;;20.88;64.77;99024.06;5337001;26;20301;-24
2024/04/09 03:11:17;;;;;;;0.10;0.10;;;20.30;90.70;;;20.87;64.92;99023.28;5351234;26;20764;-25
2024/04/09 03:13:46;;;;;;;0.10;0.10;;;20.30;91.10;;;20.83;65.06;99032.78;5328774;26;20265;-25
2024/04/09 03:16:21;;;;;;;0.03;0.03;;;20.20;90.70;;;20.82;64.59;99038.38;5344141;26;21082;-29
2024/04/09 03:18:55;;;;;;;0.10;0.10;;;20.20;90.80;;;20.81;65.07;99039.44;5406406;26;20423;-24
2024/04/09 03:21:20;;;;;;;0.10;0.10;;;20.20;90.90;;;20.78;65.39;99046.03;5362601;26;20606;-27
2024/04/09 03:23:46;;;;;;;0.00;0.00;;;20.20;90.90;;;20.77;65.02;99036.47;5338526;26;20318;-25
2024/04/09 03:26:13;;;;;;;0.10;0.10;;;20.20;91.00;;;20.76;65.73;99034.06;5373983;26;20819;-24
2024/04/09 03:28:39;;;;;;;0.00;0.00;;;20.20;91.00;;;20.75;65.47;99033.25;5393930;26;20273;-24
2024/04/09 03:31:05;;;;;;;0.00;0.00;;;20.10;91.20;;;20.73;65.09;99046.00;5323986;26;20240;-25
2024/04/09 03:33:31;;;;;;;0.00;0.00;;;20.10;91.00;;;20.70;65.31;99043.84;5361212;26;20812;-26
2024/04/09 03:35:59;;;;;;;0.00;0.00;;;20.10;91.00;;;20.68;64.82;99056.59;5345921;26;20387;-26
2024/04/09 03:38:54;;;;;;;0.10;0.10;;;20.10;91.10;;;20.65;64.90;99071.16;5348784;26;20270;-22
2024/04/09 03:46:31;;;;;;;0.10;0.10;;;20.00;91.10;;;20.60;64.83;99108.31;5364568;26;20259;-22
2024/04/09 03:59:10;;;;;;;0.00;0.00;;;19.90;91.30;;;20.48;65.48;99120.94;5415460;26;20275;-22
2024/04/09 04:01:35;;;;;;;0.10;0.10;;;19.90;91.40;;;20.46;65.77;99131.00;5374437;26;20265;-23
2024/04/09 04:04:02;;;;;;;0.03;0.03;;;19.80;91.30;;;20.45;65.18;99140.81;5422109;26;20268;-22
2024/04/09 04:06:27;;;;;;;0.10;0.10;;;19.80;91.40;;;20.43;65.49;99153.50;5436599;26;20354;-22
2024/04/09 04:08:53;;;;;;;0.00;0.00;;;19.80;91.50;;;20.42;65.82;99162.53;5414052;26;21045;-22
2024/04/09 04:11:19;;;;;;;0.10;0.10;;;19.80;91.60;;;20.42;66.18;99167.03;5445864;26;20256;-22
2024/04/09 04:21:53;;;;;;;0.10;0.10;;;19.70;91.70;;;20.36;66.02;99183.94;5405030;26;20954;-22
2024/04/09 04:24:34;;;;;;;0.10;0.10;;;19.70;91.80;;;20.35;66.06;99169.06;5406982;26;20356;-22
2024/04/09 04:27:06;;;;;;;0.10;0.10;;;19.70;91.90;;;20.33;66.67;99169.31;5398271;26;20383;-22
2024/04/09 04:30:31;;;;;;;0.17;0.17;;;19.70;92.00;;;20.33;66.23;99161.34;5332073;26;20233;-22
2024/04/09 04:44:57;;;;;;;0.10;0.10;;;19.60;92.20;;;20.24;66.89;99191.22;5404669;26;20809;-22
2024/04/09 07:01:12;;;;;;;0.10;0.10;;;18.70;93.40;;;19.36;66.66;99665.56;5410041;26;20851;-23
2024/04/09 07:03:38;;;;;;;0.10;0.10;;;18.70;93.10;;;19.34;66.42;99671.09;5426405;26;20302;-24
2024/04/09 07:06:04;;;;;;;0.10;0.10;;;18.70;93.10;;;19.32;66.40;99669.72;5421835;26;20310;-24
2024/04/09 07:08:30;;;;;;;0.10;0.10;;;18.70;93.10;;;19.30;66.55;99669.94;5437089;26;20270;-24
2024/04/09 07:10:56;;;;;;;0.10;0.10;;;18.70;93.10;;;19.29;66.48;99680.78;5447353;26;20266;-24
2024/04/09 07:13:24;;;;;;;0.10;0.10;;;18.60;93.10;;;19.27;66.00;99693.44;5434754;26;20381;-25
2024/04/09 07:15:50;;;;;;;0.10;0.10;;;18.60;93.10;;;19.26;66.35;99710.41;5441612;26;20269;-27
2024/04/09 07:18:16;;;;;;;0.10;0.10;;;18.60;93.10;;;19.24;66.50;99723.09;5427171;26;20263;-23
2024/04/09 07:20:42;;;;;;;0.07;0.07;;;18.60;93.20;;;19.22;66.90;99723.28;5432834;26;20259;-24
2024/04/09 07:23:07;;;;;;;0.03;0.03;;;18.60;93.20;;;19.19;66.63;99728.25;5451823;26;20231;-25
2024/04/09 07:25:33;;;;;;;0.10;0.10;;;18.50;93.10;;;19.18;66.43;99743.34;5429393;26;20309;-23
2024/04/09 07:27:59;;;;;;;0.00;0.00;;;18.50;93.10;;;19.15;66.56;99745.63;5444847;26;20373;-23
2024/04/09 07:30:25;;;;;;;0.10;0.10;;;18.50;93.10;;;19.14;66.42;99762.56;5433431;26;20669;-27
2024/04/09 07:32:51;;;;;;;0.20;0.20;;;18.50;93.10;;;19.12;66.48;99759.34;5429329;26;20271;-26
2024/04/09 07:35:17;;;;;;;0.10;0.10;;;18.50;93.10;;;19.09;66.46;99761.38;5454206;26;20237;-23
2024/04/09 07:37:42;;;;;;;0.10;0.10;;;18.40;93.10;;;19.06;66.67;99779.59;5448569;26;20345;-25
2024/04/09 07:40:08;;;;;;;0.03;0.03;;;18.40;93.10;;;19.04;66.71;99779.81;5447003;26;20267;-23
2024/04/09 07:42:34;;;;;;;0.10;0.10;;;18.40;93.20;;;19.01;66.59;99774.94;5453119;26;20379;-24
2024/04/09 07:45:00;;;;;;;0.10;0.10;;;18.40;93.20;;;19.00;66.79;99791.09;5440586;26;20278;-23
2024/04/09 07:47:26;;;;;;;0.10;0.10;;;18.30;93.20;;;18.97;66.78;99804.78;5413409;26;20475;-23
2024/04/09 07:49:53;;;;;;;0.00;0.00;;;18.30;93.30;;;18.95;66.66;99812.94;5444314;26;20403;-23
2024/04/09 07:52:19;;;;;;;0.10;0.10;;;18.30;93.30;;;18.92;66.94;99821.34;5452853;26;20274;-24
2024/04/09 07:54:44;;;;;;;0.10;0.10;;;18.30;93.40;;;18.91;67.27;99829.53;5441894;26;20599;-23
2024/04/09 07:57:14;;;;;;;0.10;0.10;;;18.30;93.40;;;18.88;67.36;99829.94;5445035;21;20308;-83
2024/04/09 07:59:41;;;;;;;0.10;0.10;;;18.20;93.50;;;18.86;67.36;99854.03;5257282;27;20237;-83
2024/04/09 08:02:07;;;;;;;0.10;0.10;;;18.20;93.50;;;18.84;67.35;99865.88;5267046;26;21084;-83
2024/04/09 08:04:33;;;;;;;0.20;0.20;;;18.20;93.60;;;18.81;67.57;99869.75;5244019;26;20268;-83
2024/04/09 08:06:59;;;;;;;0.07;0.07;;;18.20;93.60;;;18.78;67.22;99883.47;5264636;27;21084;-83
2024/04/09 08:09:31;;;;;;;0.10;0.10;;;18.10;93.50;;;18.76;67.47;99896.09;5243621;26;20282;-83
2024/04/09 08:12:00;;;;;;;0.10;0.10;;;18.20;93.60;;;18.74;67.24;99906.09;5261256;27;20264;-83
2024/04/09 08:14:27;;;;;;;0.10;0.10;;;18.10;93.60;;;18.72;67.47;99905.53;5288812;26;20298;-83
2024/04/09 08:16:52;;;;;;;0.00;0.00;;;18.10;93.70;;;18.70;67.72;99923.47;5282493;26;20258;-83
2024/04/09 08:19:18;;;;;;;0.13;0.13;;;18.00;93.80;;;18.69;68.00;99927.13;5303724;26;20863;-82
2024/04/09 08:21:44;;;;;;;0.00;0.00;;;18.00;93.90;;;18.65;68.02;99933.88;5275435;26;20334;-83
2024/04/09 08:24:10;;;;;;;0.10;0.10;;;18.00;94.00;;;18.64;68.34;99945.50;5256825;27;20351;-82
2024/04/09 08:26:37;;;;;;;0.10;0.10;;;18.00;94.10;;;18.63;68.51;99954.44;5268103;26;20358;-83
2024/04/09 08:29:05;;;;;;;0.10;0.10;;;17.90;94.20;;;18.60;68.41;99949.59;5281967;26;20334;-82
2024/04/09 08:31:34;;;;;;;0.10;0.10;;;17.90;94.30;;;18.56;68.77;99951.88;5268179;26;20240;-83
2024/04/09 08:34:00;;;;;;;0.10;0.10;;;17.90;94.30;;;18.54;68.87;99949.44;5264381;26;20656;-83
2024/04/09 08:36:27;;;;;;;0.10;0.10;;;17.90;94.40;;;18.53;68.88;99947.81;5312911;26;20263;-83
2024/04/09 08:38:53;;;;;;;0.10;0.10;;;17.80;94.50;;;18.51;68.79;99943.75;5306052;26;20877;-83
2024/04/09 08:41:20;;;;;;;0.00;0.00;;;17.80;94.60;;;18.48;69.27;99944.19;5295566;26;20266;-83
2024/04/09 08:43:49;;;;;;;0.10;0.10;;;17.80;94.70;;;18.45;69.00;99961.31;5198434;26;20283;-83
2024/04/09 08:46:15;;;;;;;0.10;0.10;;;17.80;94.70;;;18.44;69.36;99974.78;5243570;26;20263;-83
2024/04/09 08:48:44;;;;;;;0.10;0.10;;;17.80;94.80;;;18.42;69.30;99966.22;5201254;26;20263;-83
2024/04/09 08:51:10;;;;;;;0.10;0.10;;;17.70;94.90;;;18.41;69.43;99973.34;5255520;27;20247;-82
2024/04/09 08:53:38;;;;;;;0.10;0.10;;;17.70;94.90;;;18.39;69.66;99987.84;5257493;27;20277;-83
2024/04/09 08:56:05;;;;;;;0.10;0.10;;;17.70;95.00;;;18.36;70.02;99988.28;5239912;27;20258;-83
2024/04/09 08:58:31;;;;;;;0.10;0.10;;;17.70;95.10;;;18.35;69.72;99991.94;5216577;26;20487;-83
2024/04/09 09:00:58;;;;;;;0.10;0.10;;;17.70;95.20;;;18.34;70.29;99998.25;5234282;26;20301;-83
2024/04/09 09:03:25;;;;;;;0.10;0.10;;;17.60;95.20;;;18.32;70.21;100002.97;5292062;26;20993;-83
2024/04/09 09:05:59;;;;;;;0.10;0.10;;;17.60;95.30;;;18.30;70.49;100005.81;5298936;26;20626;-83
2024/04/09 09:08:26;;;;;;;0.10;0.10;;;17.60;95.30;;;18.27;70.37;100014.97;5292572;26;20781;-83
2024/04/09 09:10:55;;;;;;;0.10;0.10;;;17.60;95.30;;;18.25;70.29;100018.88;5283872;26;20985;-83
2024/04/09 09:13:21;;;;;;;0.10;0.10;;;17.60;95.40;;;18.22;69.79;100020.13;5285084;26;20267;-83
2024/04/09 09:15:55;;;;;;;0.03;0.03;;;17.50;95.10;;;18.21;70.04;100022.97;5275182;26;20266;-82
2024/04/09 09:18:24;;;;;;;0.10;0.10;;;17.50;95.20;;;18.20;69.88;100029.28;5230319;27;20259;-83
2024/04/09 09:21:00;;;;;;;0.10;0.10;;;17.50;95.30;;;18.18;69.78;100023.41;5267075;26;20301;-83
2024/04/09 09:23:26;;;;;;;0.10;0.10;;;17.50;95.30;;;18.15;70.36;100029.91;5247672;26;20340;-83
2024/04/09 09:25:54;;;;;;;0.10;0.10;;;17.50;95.40;;;18.13;70.24;100033.78;5257373;26;20794;-83
2024/04/09 09:28:22;;;;;;;0.10;0.10;;;17.40;95.50;;;18.13;70.59;100036.44;5289481;26;20325;-82
2024/04/09 09:30:49;;;;;;;0.10;0.10;;;17.40;95.50;;;18.10;70.46;100039.53;5285167;26;20262;-82
2024/04/09 09:33:32;;;;;;;0.10;0.10;;;17.40;95.60;;;18.08;70.44;100049.50;5248242;26;20274;-83
2024/04/09 09:35:59;;;;;;;0.10;0.10;;;17.40;95.60;;;18.05;70.42;100061.31;5254861;26;20278;-83
2024/04/09 09:38:26;;;;;;;0.10;0.10;;;17.40;95.70;;;18.04;70.71;100064.19;5270859;27;21172;-83
2024/04/09 09:40:53;;;;;;;0.20;0.20;;;17.30;95.70;;;18.03;70.88;100073.16;5234016;26;20266;-82
2024/04/09 09:43:24;;;;;;;0.00;0.00;;;17.30;95.80;;;18.00;70.60;100067.22;5269905;27;20341;-82
2024/04/09 09:45:51;;;;;;;0.10;0.10;;;17.30;95.80;;;17.99;70.65;100078.03;5298292;26;20270;-82
2024/04/09 09:48:22;;;;;;;0.10;0.10;;;17.30;95.90;;;17.96;70.93;100068.69;5289858;26;20257;-83
2024/04/09 09:50:49;;;;;;;0.10;0.10;;;17.30;95.90;;;17.95;70.47;100067.06;5240301;27;20273;-83
2024/04/09 09:53:18;;;;;;;0.10;0.10;;;17.30;95.90;;;17.93;71.26;100071.72;5263251;26;20304;-82
2024/04/09 09:55:47;;;;;;;0.10;0.10;;;17.20;96.00;;;17.92;70.62;100067.47;5274409;26;20336;-82
2024/04/09 09:58:20;;;;;;;0.17;0.17;;;17.20;96.00;;;17.90;71.36;100077.44;5289942;26;20645;-83
2024/04/09 10:00:49;;;;;;;0.10;0.10;;;17.20;96.10;;;17.88;71.16;100076.84;5250762;26;20262;-82
2024/04/09 10:03:16;;;;;;;0.10;0.10;;;17.20;96.10;;;17.87;70.61;100075.19;5283064;26;20247;-82
2024/04/09 10:05:42;;;;;;;0.10;0.10;;;17.20;96.10;;;17.85;70.97;100087.03;5271931;26;21492;-82
2024/04/09 10:08:27;;;;;;;0.17;0.17;;;17.20;96.10;;;17.82;71.00;100090.91;5270537;26;20270;-82
2024/04/09 10:10:54;;;;;;;0.10;0.10;;;17.10;96.10;;;17.80;70.71;100100.88;5264396;27;20301;-83
2024/04/09 10:13:24;;;;;;;0.10;0.10;;;17.10;96.10;;;17.78;71.09;100097.63;5310427;26;20880;-82
2024/04/09 10:15:50;;;;;;;0.10;0.10;;;17.10;96.20;;;17.77;71.21;100096.00;5243116;26;20278;-83
2024/04/09 10:18:37;;;;;;;0.10;0.10;;;17.10;96.20;;;17.76;70.83;100099.66;5296895;26;20783;-82
2024/04/09 10:21:04;;;;;;;0.10;0.10;;;17.00;96.20;;;17.73;70.86;100102.72;5275064;26;21105;-83
2024/04/09 10:23:36;;;;;;;0.07;0.07;;;17.00;96.30;;;17.71;71.34;100096.81;5249537;26;20237;-83
2024/04/09 10:26:05;;;;;;;0.10;0.10;;;17.00;96.30;;;17.69;71.19;100096.19;5247962;26;20357;-83
2024/04/09 10:28:35;;;;;;;0.10;0.10;;;17.00;96.40;;;17.68;71.04;100102.50;5258666;26;20260;-83
2024/04/09 10:31:08;;;;;;;0.10;0.10;;;17.00;96.50;;;17.67;70.93;100108.78;5260816;27;20251;-83
2024/04/09 10:33:36;;;;;;;0.20;0.20;;;17.00;96.50;;;17.65;71.27;100122.22;5261131;26;20266;-83
2024/04/09 10:36:11;;;;;;;0.07;0.07;;;16.90;96.50;;;17.64;71.38;100122.44;5250700;27;20275;-83
2024/04/09 10:38:43;;;;;;;0.10;0.10;;;16.90;96.50;;;17.63;70.79;100115.53;5299636;26;20272;-83
2024/04/09 10:41:09;;;;;;;0.10;0.10;;;16.90;96.40;;;17.59;71.26;100112.47;5252869;26;20733;-82
2024/04/09 10:43:35;;;;;;;0.10;0.10;;;16.90;96.30;;;17.58;70.76;100107.38;5260488;27;20245;-83
2024/04/09 10:46:02;;;;;;;0.10;0.10;;;16.90;96.30;;;17.58;70.82;100110.03;5294916;26;20349;-82
2024/04/09 10:48:29;;;;;;;0.10;0.10;;;16.90;96.30;;;17.56;71.09;100117.38;5322779;26;20287;-83
2024/04/09 10:50:54;;;;;;;0.10;0.10;;;16.90;96.40;;;17.54;70.97;100122.03;5284792;26;20293;-83
2024/04/09 10:53:21;;;;;;;0.10;0.10;;;16.80;96.40;;;17.53;70.67;100125.69;5279505;26;20269;-83
2024/04/09 10:55:47;;;;;;;0.10;0.10;;;16.80;96.40;;;17.52;70.89;100135.47;5272612;27;20249;-83
2024/04/09 10:58:15;;;;;;;0.10;0.10;;;16.80;96.40;;;17.51;70.96;100140.97;5262215;27;20270;-82
2024/04/09 11:00:57;;;;;;;0.10;0.10;;;16.80;96.40;;;17.49;70.73;100137.72;5225504;26;20825;-82
2024/04/09 11:03:25;;;;;;;0.20;0.20;;;16.80;96.40;;;17.46;70.73;100125.69;5288330;26;20666;-83
2024/04/09 11:05:51;;;;;;;0.20;0.20;;;16.70;96.30;;;17.45;70.47;100121.44;5293778;26;20274;-82
2024/04/09 11:08:32;;;;;;;0.10;0.10;;;16.70;96.30;;;17.44;70.71;100123.25;5267233;26;20816;-83
2024/04/09 11:11:00;;;;;;;0.10;0.10;;;16.70;96.30;;;17.43;70.68;100137.50;5226968;27;20252;-83
2024/04/09 11:13:27;;;;;;;0.10;0.10;;;16.70;96.40;;;17.43;70.65;100149.91;5219805;27;20259;-83
2024/04/09 11:15:53;;;;;;;0.13;0.13;;;16.70;96.50;;;17.41;70.47;100160.69;5249797;26;20287;-82
2024/04/09 11:18:20;;;;;;;0.10;0.10;;;16.70;96.60;;;17.41;70.78;100160.69;5296405;26;20260;-82
2024/04/09 11:20:57;;;;;;;0.17;0.17;;;16.70;96.50;;;17.40;70.76;100168.81;5217224;26;20270;-82
2024/04/09 11:23:24;;;;;;;0.00;0.00;;;16.60;96.50;;;17.38;70.50;100170.84;5288157;26;20233;-82
2024/04/09 11:25:52;;;;;;;0.10;0.10;;;16.70;96.60;;;17.37;70.61;100170.03;5214536;26;20339;-81
2024/04/09 11:28:19;;;;;;;0.10;0.10;;;16.70;96.60;;;17.37;70.33;100169.22;5224185;27;20799;-83
2024/04/09 11:30:50;;;;;;;0.10;0.10;;;16.60;96.70;;;17.35;71.16;100161.50;5239451;27;20286;-82
2024/04/09 11:33:17;;;;;;;0.10;0.10;;;16.60;96.70;;;17.35;71.17;100158.84;5283132;26;20264;-82
2024/04/09 11:35:43;;;;;;;0.20;0.20;;;16.60;96.70;;;17.35;70.73;100160.69;5259808;27;20524;-83
2024/04/09 11:38:09;;;;;;;0.10;0.10;;;16.60;96.70;;;17.34;71.11;100159.88;5289092;26;20266;-82
2024/04/09 11:40:37;;;;;;;0.10;0.10;;;16.60;97.10;;;17.34;71.18;100154.59;5206321;26;20261;-83
2024/04/09 11:43:03;;;;;;;0.10;0.10;;;16.60;96.90;;;17.34;71.24;100166.97;5305253;26;20328;-83
2024/04/09 11:45:33;;;;;;;0.10;0.10;;;16.60;96.90;;;17.33;70.75;100175.91;5253033;27;21224;-83
2024/04/09 11:47:59;;;;;;;0.10;0.10;;;16.60;96.90;;;17.33;71.07;100173.28;5296336;26;20308;-83
2024/04/09 11:50:25;;;;;;;0.10;0.10;;;16.60;97.00;;;17.32;71.14;100177.75;5288148;26;20266;-82
2024/04/09 11:52:52;;;;;;;0.10;0.10;;;16.60;97.10;;;17.30;71.33;100171.03;5282503;26;20269;-82
2024/04/09 11:55:18;;;;;;;0.10;0.10;;;16.60;97.10;;;17.30;71.52;100182.44;5244014;27;20296;-83
2024/04/09 11:57:46;;;;;;;0.10;0.10;;;16.50;96.90;;;17.29;70.76;100154.38;5224910;27;20279;-82
2024/04/09 12:00:13;;;;;;;0.10;0.10;;;16.60;96.90;;;17.28;69.83;100151.94;5229253;26;20786;-82
2024/04/09 12:02:44;;;;;;;0.20;0.20;;;16.50;96.20;;;17.28;69.05;100136.88;5262989;27;20300;-82
2024/04/09 12:05:12;;;;;;;0.10;0.10;;;16.60;96.10;;;17.27;69.28;100135.25;5277352;26;24137;-82
2024/04/09 12:07:40;;;;;;;0.10;0.10;;;16.60;95.90;;;17.27;68.98;100127.31;5266794;26;20238;-82
2024/04/09 12:10:07;;;;;;;0.20;0.20;;;16.50;95.80;;;17.27;69.11;100129.13;5324573;26;20281;-82
2024/04/09 12:12:33;;;;;;;0.10;0.10;;;16.60;95.90;;;17.26;68.62;100114.28;5274221;26;20256;-82
2024/04/09 12:15:01;;;;;;;0.10;0.10;;;16.50;96.00;;;17.26;69.38;100115.09;5280891;26;20277;-82
2024/04/09 12:17:27;;;;;;;0.20;0.20;;;16.50;96.10;;;17.25;68.91;100123.25;5241881;26;20264;-82
2024/04/09 12:19:53;;;;;;;0.10;0.10;;;16.50;95.90;;;17.24;68.80;100129.56;5301885;26;20274;-82
2024/04/09 12:22:19;;;;;;;0.10;0.10;;;16.50;96.10;;;17.23;68.39;100128.75;5275846;26;20260;-81
2024/04/09 12:24:45;;;;;;;0.10;0.10;;;16.50;95.80;;;17.24;68.68;100135.66;5206171;27;20311;-82
2024/04/09 12:27:11;;;;;;;0.10;0.10;;;16.50;95.90;;;17.24;69.10;100127.72;5255799;27;20245;-82
2024/04/09 12:29:37;;;;;;;0.10;0.10;;;16.50;96.00;;;17.25;68.90;100125.91;5257398;27;20268;-82
2024/04/09 12:32:06;;;;;;;0.10;0.10;;;16.50;96.10;;;17.23;69.64;100128.75;5305716;26;20289;-83
2024/04/09 12:34:34;;;;;;;0.00;0.00;;;16.50;96.20;;;17.21;68.96;100138.72;5239015;26;20340;-82
2024/04/09 12:36:59;;;;;;;0.10;0.10;;;16.50;96.10;;;17.23;69.21;100157.00;5296440;26;20852;-81
2024/04/09 12:39:30;;;;;;;0.10;0.10;;;16.40;96.10;;;17.19;68.06;100164.50;5263403;27;20250;-82
2024/04/09 12:41:58;;;;;;;0.10;0.10;;;16.40;95.80;;;17.18;67.87;100149.69;5283597;26;20268;-83
2024/04/09 12:44:25;;;;;;;0.10;0.10;;;16.50;95.60;;;17.14;67.20;100157.22;5246668;27;20763;-83
2024/04/09 12:46:51;;;;;;;0.10;0.10;;;16.40;95.50;;;17.14;67.82;100159.03;5261208;26;20867;-82
2024/04/09 12:49:29;;;;;;;0.10;0.10;;;16.40;95.10;;;17.16;67.95;100149.06;5262284;26;20278;-83
2024/04/09 12:51:55;;;;;;;0.10;0.10;;;16.40;95.40;;;17.13;67.35;100144.97;5275950;26;20638;-82
2024/04/09 12:54:23;;;;;;;0.17;0.17;;;16.40;95.30;;;17.13;66.88;100146.81;5292875;26;20322;-82
2024/04/09 12:56:49;;;;;;;0.10;0.10;;;16.40;95.00;;;17.15;67.75;100150.09;5265416;26;20930;-82
2024/04/09 12:59:16;;;;;;;0.10;0.10;;;16.40;95.20;;;17.12;67.29;100150.47;5257114;27;20250;-82
2024/04/09 13:01:43;;;;;;;0.10;0.10;;;16.40;95.00;;;17.11;66.84;100164.72;5277848;26;21001;-82
2024/04/09 13:04:10;;;;;;;0.20;0.20;;;16.40;94.80;;;17.11;66.99;100154.13;5236027;26;20295;-82
2024/04/09 13:06:36;;;;;;;0.17;0.17;;;16.40;95.00;;;17.13;67.21;100162.66;5266371;27;20820;-82
2024/04/09 13:09:04;;;;;;;0.10;0.10;;;16.40;95.20;;;17.12;67.64;100158.41;5258871;26;20261;-82
2024/04/09 13:11:31;;;;;;;0.10;0.10;;;16.40;95.50;;;17.10;67.77;100171.00;5255637;27;20730;-82